Schedule Details


Flight Number: CTN342
Departure: Franjo Tudman (LDZA) at 22:00
Arrival: Sarajevo (LQSA) at 22:50
Route: TEBLI L187 KOMAR L608 BOSNA

Weather Information
LDZA 172200Z VRB02KT CAVOK 20/15 Q1017 NOSIG
LQSA 172200Z 29003KT 270V340 9999 FEW070 17/13 Q1020
Schedule Frequency

Route Map